Time;durP1;ratioP1;P1;durP2;ratioP2;P2;SDS_P1;SDS_P2;PMS_P1;PMS_P2;Temp;Humidity;BMP_temperature;BMP_pressure;BME280_temperature;BME280_humidity;BME280_pressure;Samples;Min_cycle;Max_cycle;Signal;HPM_P1;HPM_P2
2022/08/20 00:02:05;;;;;;;1.60;1.50;;;23.80;64.20;;;;;;5053137;28;20297;-60
2022/08/20 00:04:31;;;;;;;1.65;1.55;;;23.80;64.20;;;;;;5052492;28;20261;-60
2022/08/20 00:06:58;;;;;;;2.35;1.63;;;23.80;64.20;;;;;;5052954;28;20305;-60
2022/08/20 00:09:24;;;;;;;1.73;1.63;;;23.80;64.10;;;;;;5053021;28;20189;-59
2022/08/20 00:11:49;;;;;;;1.48;1.38;;;23.80;64.10;;;;;;5052366;28;20173;-59
2022/08/20 00:14:15;;;;;;;2.88;1.77;;;23.80;64.90;;;;;;5053167;28;20171;-60
2022/08/20 00:16:41;;;;;;;1.70;1.60;;;23.80;64.10;;;;;;5052998;28;20179;-60
2022/08/20 00:19:07;;;;;;;2.42;1.45;;;23.80;64.20;;;;;;5052123;28;20183;-60
2022/08/20 00:21:33;;;;;;;1.70;1.60;;;23.80;64.20;;;;;;5053096;28;20181;-60
2022/08/20 00:23:58;;;;;;;1.55;1.35;;;23.80;64.10;;;;;;5052280;28;20236;-60
2022/08/20 00:26:24;;;;;;;1.65;1.55;;;23.80;64.10;;;;;;5052977;28;20645;-59
2022/08/20 00:28:49;;;;;;;1.50;1.40;;;23.80;64.00;;;;;;5052484;28;20609;-60
2022/08/20 00:31:18;;;;;;;1.58;1.48;;;23.80;64.10;;;;;;5052325;28;20198;-60
2022/08/20 00:33:44;;;;;;;1.67;1.58;;;23.80;64.20;;;;;;5052520;28;20660;-60
2022/08/20 00:36:11;;;;;;;1.70;1.60;;;23.80;64.00;;;;;;5053019;28;20179;-60
2022/08/20 00:38:37;;;;;;;1.60;1.48;;;23.80;64.10;;;;;;5051912;28;20684;-60
2022/08/20 00:41:03;;;;;;;1.48;1.38;;;23.80;64.20;;;;;;5052475;28;20190;-60
2022/08/20 00:43:48;;;;;;;1.98;1.48;;;23.80;64.20;;;;;;5052769;28;20179;-60
2022/08/20 00:46:32;;;;;;;2.50;1.58;;;23.80;64.20;;;;;;5051947;28;20223;-60
2022/08/20 00:48:57;;;;;;;1.60;1.50;;;23.80;64.10;;;;;;5052362;28;20579;-60
2022/08/20 00:51:33;;;;;;;1.55;1.45;;;23.80;64.10;;;;;;5052675;28;20182;-60
2022/08/20 00:54:13;;;;;;;1.67;1.58;;;23.80;64.20;;;;;;5050692;28;20175;-60
2022/08/20 00:56:39;;;;;;;2.30;1.60;;;23.80;64.20;;;;;;5051440;28;20217;-60
2022/08/20 00:59:10;;;;;;;1.50;1.40;;;23.80;64.10;;;;;;5050730;28;20554;-60
2022/08/20 01:01:36;;;;;;;2.55;1.75;;;23.70;64.10;;;;;;5051336;28;20922;-60
2022/08/20 01:04:01;;;;;;;1.50;1.35;;;23.70;64.10;;;;;;5051269;28;20183;-60
2022/08/20 01:06:27;;;;;;;1.38;1.27;;;23.70;64.10;;;;;;5051770;28;20175;-60
2022/08/20 01:08:53;;;;;;;1.63;1.52;;;23.70;64.10;;;;;;5052026;28;20257;-60
2022/08/20 01:11:21;;;;;;;1.60;1.50;;;23.70;64.10;;;;;;5052449;28;20171;-60
2022/08/20 01:13:47;;;;;;;1.48;1.38;;;23.70;64.10;;;;;;5051778;28;20194;-60
2022/08/20 01:16:17;;;;;;;1.50;1.40;;;23.70;64.10;;;;;;5051476;28;20207;-60
2022/08/20 01:18:43;;;;;;;1.88;1.77;;;23.70;64.10;;;;;;5051370;28;20191;-60
2022/08/20 01:21:08;;;;;;;1.60;1.30;;;23.70;64.10;;;;;;5050371;28;20164;-60
2022/08/20 01:23:56;;;;;;;1.30;1.20;;;23.70;64.00;;;;;;5052280;28;20225;-60
2022/08/20 01:26:35;;;;;;;1.60;1.50;;;23.70;64.10;;;;;;5051290;28;20171;-60
2022/08/20 01:29:04;;;;;;;1.63;1.40;;;23.70;64.10;;;;;;5052148;28;20215;-60
2022/08/20 01:31:31;;;;;;;1.77;1.67;;;23.70;64.10;;;;;;5056091;28;20259;-60
2022/08/20 01:33:58;;;;;;;1.60;1.50;;;23.70;64.10;;;;;;5055818;28;20226;-60
2022/08/20 01:36:35;;;;;;;1.65;1.55;;;23.70;64.10;;;;;;5055539;28;20179;-60
2022/08/20 01:39:01;;;;;;;1.33;1.23;;;23.70;64.20;;;;;;5054820;28;20578;-60
2022/08/20 01:41:42;;;;;;;1.25;1.25;;;23.70;64.10;;;;;;5055322;28;20798;-60
2022/08/20 01:44:08;;;;;;;1.40;1.30;;;23.70;64.10;;;;;;5054616;28;20661;-60
2022/08/20 01:46:36;;;;;;;2.25;1.30;;;23.70;64.10;;;;;;5055802;28;20179;-60
2022/08/20 01:49:10;;;;;;;1.77;1.45;;;23.70;64.10;;;;;;5054831;28;20244;-60
2022/08/20 01:51:35;;;;;;;1.52;1.42;;;23.70;64.20;;;;;;5054678;28;20400;-60
2022/08/20 01:54:01;;;;;;;1.50;1.40;;;23.70;64.90;;;;;;5055702;28;20520;-60
2022/08/20 01:56:29;;;;;;;1.45;1.35;;;23.70;64.10;;;;;;5054758;28;20610;-60
2022/08/20 01:58:56;;;;;;;1.40;1.30;;;23.70;64.20;;;;;;5055422;28;20175;-60
2022/08/20 02:01:34;;;;;;;1.55;1.45;;;23.70;64.10;;;;;;5055775;28;20182;-60
2022/08/20 02:04:01;;;;;;;2.17;1.42;;;23.70;64.30;;;;;;5054959;28;20183;-60
2022/08/20 02:06:27;;;;;;;1.40;1.30;;;23.70;64.20;;;;;;5055361;28;20175;-60
2022/08/20 02:08:59;;;;;;;1.73;1.63;;;23.70;64.20;;;;;;5054958;28;20246;-60
2022/08/20 02:11:26;;;;;;;1.33;1.25;;;23.70;64.20;;;;;;5054598;28;20258;-60
2022/08/20 02:13:51;;;;;;;1.50;1.40;;;23.70;64.20;;;;;;5055032;28;20207;-60
2022/08/20 02:16:21;;;;;;;1.55;1.45;;;23.70;64.30;;;;;;5055320;28;20645;-60
2022/08/20 02:18:49;;;;;;;1.85;1.50;;;23.70;64.10;;;;;;5055434;28;20663;-60
2022/08/20 02:21:15;;;;;;;1.80;1.70;;;23.70;64.20;;;;;;5054406;28;20171;-60
2022/08/20 02:23:40;;;;;;;1.40;1.30;;;23.70;64.20;;;;;;5053473;28;20182;-60
2022/08/20 02:26:06;;;;;;;1.50;1.40;;;23.70;64.20;;;;;;5054956;28;20183;-60
2022/08/20 02:28:31;;;;;;;1.38;1.30;;;23.70;64.20;;;;;;5053658;28;20223;-59
2022/08/20 02:30:59;;;;;;;1.20;1.10;;;23.70;64.20;;;;;;5054157;28;20176;-59
2022/08/20 02:33:24;;;;;;;1.73;1.63;;;23.70;64.10;;;;;;5055005;28;20650;-60
2022/08/20 02:35:51;;;;;;;1.50;1.40;;;23.70;64.10;;;;;;5054870;28;20176;-60
2022/08/20 02:38:16;;;;;;;1.50;1.40;;;23.70;64.10;;;;;;5054271;28;20185;-60
2022/08/20 02:40:43;;;;;;;1.40;1.30;;;23.70;64.10;;;;;;5053181;28;20488;-60
2022/08/20 02:43:08;;;;;;;1.23;1.23;;;23.70;64.20;;;;;;5054719;28;20680;-60
2022/08/20 02:45:42;;;;;;;1.65;1.52;;;23.70;64.20;;;;;;5054163;28;20171;-61
2022/08/20 02:48:07;;;;;;;1.63;1.33;;;23.70;64.20;;;;;;5054730;28;20218;-60
2022/08/20 02:50:33;;;;;;;1.52;1.42;;;23.60;64.10;;;;;;5054565;28;20175;-60
2022/08/20 02:52:58;;;;;;;1.58;1.48;;;23.70;64.10;;;;;;5053692;28;20225;-60
2022/08/20 02:55:24;;;;;;;1.25;1.25;;;23.60;64.00;;;;;;5054375;28;20602;-59
2022/08/20 02:57:51;;;;;;;1.13;1.13;;;23.70;64.10;;;;;;5054562;28;20237;-59
2022/08/20 03:00:17;;;;;;;1.63;1.52;;;23.60;64.10;;;;;;5052791;28;20221;-60
2022/08/20 03:02:44;;;;;;;1.50;1.40;;;23.70;64.10;;;;;;5054669;28;20267;-60
2022/08/20 03:05:10;;;;;;;1.63;1.52;;;23.70;64.10;;;;;;5054583;28;20182;-60
2022/08/20 03:07:46;;;;;;;1.48;1.33;;;23.70;64.10;;;;;;5053380;28;20227;-60
2022/08/20 03:10:13;;;;;;;1.50;1.40;;;23.60;64.10;;;;;;5054565;28;20179;-60
2022/08/20 03:12:39;;;;;;;1.60;1.50;;;23.70;64.10;;;;;;5053496;28;20657;-60
2022/08/20 03:15:05;;;;;;;1.40;1.30;;;23.60;64.10;;;;;;5054380;28;20218;-60
2022/08/20 03:17:31;;;;;;;1.50;1.40;;;23.60;64.10;;;;;;5054382;28;20182;-60
2022/08/20 03:19:56;;;;;;;1.80;1.70;;;23.60;64.10;;;;;;5053191;28;20991;-60
2022/08/20 03:22:22;;;;;;;1.25;1.15;;;23.60;64.10;;;;;;5053879;28;20285;-60
2022/08/20 03:24:48;;;;;;;1.35;1.25;;;23.70;64.10;;;;;;5053852;28;20289;-60
2022/08/20 03:27:13;;;;;;;2.03;1.40;;;23.60;64.10;;;;;;5053400;28;20171;-60
2022/08/20 03:29:39;;;;;;;1.30;1.30;;;23.60;64.10;;;;;;5053783;28;20657;-60
2022/08/20 03:32:04;;;;;;;1.60;1.50;;;23.60;64.10;;;;;;5053690;28;20172;-59
2022/08/20 03:34:30;;;;;;;1.85;1.60;;;23.60;64.10;;;;;;5053104;28;20191;-60
2022/08/20 03:36:55;;;;;;;1.83;1.73;;;23.60;64.10;;;;;;5053868;28;20186;-60
2022/08/20 03:39:21;;;;;;;1.45;1.35;;;23.60;64.00;;;;;;5053595;28;20259;-60
2022/08/20 03:41:46;;;;;;;1.52;1.42;;;23.60;64.00;;;;;;5052702;28;20625;-60
2022/08/20 03:44:12;;;;;;;1.48;1.38;;;23.60;64.00;;;;;;5053728;28;20186;-60
2022/08/20 03:46:38;;;;;;;1.42;1.33;;;23.60;64.10;;;;;;5053454;28;20580;-60
2022/08/20 03:49:03;;;;;;;1.70;1.60;;;23.60;64.10;;;;;;5052638;28;20223;-60
2022/08/20 03:51:29;;;;;;;1.48;1.38;;;23.60;64.00;;;;;;5053063;28;20485;-60
2022/08/20 03:53:55;;;;;;;1.73;1.45;;;23.60;64.00;;;;;;5053194;28;20202;-60
2022/08/20 03:56:20;;;;;;;1.20;1.20;;;23.60;64.10;;;;;;5052757;28;20179;-59
2022/08/20 03:58:46;;;;;;;1.45;1.38;;;23.60;64.10;;;;;;5053112;28;20668;-60
2022/08/20 04:01:12;;;;;;;1.88;1.77;;;23.60;64.00;;;;;;5053574;28;20209;-60
2022/08/20 04:03:37;;;;;;;1.50;1.40;;;23.60;64.10;;;;;;5052907;28;20170;-61
2022/08/20 04:06:03;;;;;;;1.42;1.33;;;23.60;64.10;;;;;;5053088;28;20210;-60
2022/08/20 04:08:28;;;;;;;1.60;1.50;;;23.50;64.00;;;;;;5053025;28;20229;-60
2022/08/20 04:10:56;;;;;;;1.50;1.25;;;23.60;64.10;;;;;;5052459;28;20721;-60
2022/08/20 04:13:22;;;;;;;1.52;1.33;;;23.60;64.00;;;;;;5053132;28;20179;-60
2022/08/20 04:15:47;;;;;;;1.30;1.20;;;23.60;64.10;;;;;;5053086;28;20175;-60
2022/08/20 04:18:13;;;;;;;1.55;1.45;;;23.60;64.00;;;;;;5052425;28;20717;-60
2022/08/20 04:20:40;;;;;;;1.65;1.55;;;23.60;64.00;;;;;;5052742;28;20679;-60
2022/08/20 04:23:07;;;;;;;1.65;1.55;;;23.60;64.10;;;;;;5052256;28;20553;-60
2022/08/20 04:25:33;;;;;;;1.52;1.33;;;23.60;64.00;;;;;;5053072;28;20171;-60
2022/08/20 04:27:59;;;;;;;1.50;1.40;;;23.60;64.10;;;;;;5052768;28;20203;-60
2022/08/20 04:30:25;;;;;;;1.67;1.58;;;23.60;64.10;;;;;;5052218;28;20190;-60
2022/08/20 04:32:51;;;;;;;1.83;1.73;;;23.60;64.00;;;;;;5052655;28;20195;-60
2022/08/20 04:35:17;;;;;;;1.63;1.52;;;23.60;64.10;;;;;;5052649;28;20229;-60
2022/08/20 04:37:43;;;;;;;1.20;1.20;;;23.60;64.00;;;;;;5052095;28;20175;-60
2022/08/20 04:42:56;;;;;;;1.50;1.40;;;23.60;64.00;;;;;;5052586;28;20178;-60
2022/08/20 04:45:21;;;;;;;1.40;1.30;;;23.60;64.00;;;;;;5051936;28;20171;-60
2022/08/20 04:47:48;;;;;;;1.60;1.50;;;23.60;64.00;;;;;;5052311;28;20217;-60
2022/08/20 04:50:14;;;;;;;1.50;1.40;;;23.60;64.00;;;;;;5052875;28;20175;-60
2022/08/20 04:52:39;;;;;;;1.60;1.40;;;23.50;64.00;;;;;;5052071;28;20645;-60
2022/08/20 04:55:05;;;;;;;1.58;1.48;;;23.60;64.10;;;;;;5052612;28;20167;-60
2022/08/20 04:57:31;;;;;;;1.80;1.70;;;23.60;64.00;;;;;;5052596;28;20187;-60
2022/08/20 04:59:57;;;;;;;2.00;1.60;;;23.60;64.00;;;;;;5051724;28;20175;-60
2022/08/20 05:02:22;;;;;;;1.50;1.40;;;23.60;64.10;;;;;;5052419;28;20652;-61
2022/08/20 05:04:48;;;;;;;1.55;1.45;;;23.60;64.10;;;;;;5055914;28;20186;-61
2022/08/20 05:07:14;;;;;;;1.23;1.23;;;23.60;64.10;;;;;;5055924;28;20210;-61
2022/08/20 05:09:41;;;;;;;1.50;1.40;;;23.50;64.10;;;;;;5056643;28;20183;-60
2022/08/20 05:12:07;;;;;;;2.03;1.60;;;23.50;64.00;;;;;;5056334;28;20175;-60
2022/08/20 05:14:32;;;;;;;1.27;1.23;;;23.60;64.10;;;;;;5055959;28;20179;-61
2022/08/20 05:17:03;;;;;;;1.40;1.40;;;23.60;64.00;;;;;;5056220;28;20167;-60
2022/08/20 05:19:29;;;;;;;1.63;1.52;;;23.60;64.00;;;;;;5055867;28;20186;-61
2022/08/20 05:21:55;;;;;;;1.67;1.45;;;23.50;64.00;;;;;;5056182;28;20179;-60
2022/08/20 05:24:20;;;;;;;1.52;1.42;;;23.60;64.10;;;;;;5056323;28;20223;-60
2022/08/20 05:26:46;;;;;;;1.48;1.38;;;23.50;64.10;;;;;;5055434;28;20175;-60
2022/08/20 05:29:11;;;;;;;1.48;1.25;;;23.50;64.00;;;;;;5056144;28;20215;-60
2022/08/20 05:31:38;;;;;;;1.40;1.30;;;23.60;64.10;;;;;;5056035;28;20202;-60
2022/08/20 05:34:08;;;;;;;1.10;1.05;;;23.50;64.00;;;;;;5055267;28;20941;-60
2022/08/20 05:36:35;;;;;;;1.70;1.60;;;23.50;64.00;;;;;;5056211;28;20186;-60
2022/08/20 05:39:01;;;;;;;1.70;1.60;;;23.50;64.00;;;;;;5055928;28;20183;-60
2022/08/20 05:41:29;;;;;;;1.20;1.15;;;23.50;64.00;;;;;;5055133;28;20224;-61
2022/08/20 05:43:55;;;;;;;1.50;1.40;;;23.50;64.10;;;;;;5055694;28;20262;-61
2022/08/20 05:46:21;;;;;;;1.65;1.55;;;23.50;64.10;;;;;;5056055;28;20190;-61
2022/08/20 05:48:47;;;;;;;1.63;1.52;;;23.50;64.10;;;;;;5055082;28;20214;-60
2022/08/20 05:51:14;;;;;;;1.70;1.60;;;23.50;64.10;;;;;;5055922;28;20174;-60
2022/08/20 05:53:40;;;;;;;1.38;1.27;;;23.50;64.10;;;;;;5055757;28;20175;-60
2022/08/20 05:56:10;;;;;;;1.50;1.40;;;23.50;64.10;;;;;;5054892;28;20171;-60
2022/08/20 05:58:35;;;;;;;2.47;1.50;;;23.50;64.20;;;;;;5055692;28;20194;-60
2022/08/20 06:01:01;;;;;;;1.38;1.27;;;23.50;64.10;;;;;;5055589;28;20171;-60
2022/08/20 06:06:11;;;;;;;1.45;1.35;;;23.50;64.10;;;;;;5055537;28;20186;-60
2022/08/20 06:08:37;;;;;;;1.67;1.58;;;23.50;64.10;;;;;;5054563;28;20608;-60
2022/08/20 06:11:03;;;;;;;1.50;1.40;;;23.50;64.10;;;;;;5055150;28;20646;-59
2022/08/20 06:13:28;;;;;;;1.30;1.20;;;23.50;64.10;;;;;;5055423;28;20585;-60
2022/08/20 06:15:57;;;;;;;1.75;1.65;;;23.50;64.20;;;;;;5054427;28;20171;-60
2022/08/20 06:18:22;;;;;;;1.60;1.50;;;23.60;64.20;;;;;;5055084;28;20175;-60
2022/08/20 06:20:49;;;;;;;2.10;1.70;;;23.50;64.10;;;;;;5054752;28;20581;-60
2022/08/20 06:23:14;;;;;;;1.20;1.20;;;23.50;64.10;;;;;;5054407;28;20179;-60
2022/08/20 06:25:40;;;;;;;2.05;1.67;;;23.50;64.10;;;;;;5054556;28;20236;-60
2022/08/20 06:28:06;;;;;;;1.30;1.20;;;23.50;64.10;;;;;;5054805;28;20218;-59
2022/08/20 06:30:31;;;;;;;1.88;1.48;;;23.50;64.10;;;;;;5054143;28;20257;-59
2022/08/20 06:32:57;;;;;;;1.77;1.60;;;23.50;64.10;;;;;;5054963;28;20317;-59
2022/08/20 06:35:23;;;;;;;1.60;1.50;;;23.50;64.00;;;;;;5054814;28;20216;-60
2022/08/20 06:37:49;;;;;;;1.40;1.30;;;23.50;64.10;;;;;;5053989;28;20180;-60
2022/08/20 06:40:21;;;;;;;1.90;1.50;;;23.60;64.10;;;;;;5054739;28;20555;-59
2022/08/20 06:42:46;;;;;;;1.45;1.35;;;23.60;64.00;;;;;;5054589;28;20168;-59
2022/08/20 06:45:12;;;;;;;3.88;1.83;;;23.60;64.00;;;;;;5054143;28;20186;-59
2022/08/20 06:47:39;;;;;;;2.17;1.70;;;23.60;64.00;;;;;;5054724;28;20207;-59
2022/08/20 06:50:08;;;;;;;1.80;1.70;;;23.60;63.90;;;;;;5054558;28;20175;-59
2022/08/20 06:52:33;;;;;;;1.58;1.33;;;23.60;64.00;;;;;;5053805;28;20626;-60
2022/08/20 06:54:59;;;;;;;3.72;1.70;;;23.60;63.90;;;;;;5054294;28;20203;-59
2022/08/20 06:57:24;;;;;;;5.32;1.73;;;23.60;64.20;;;;;;5054705;28;20175;-60
2022/08/20 06:59:53;;;;;;;2.28;1.40;;;23.60;64.20;;;;;;5053600;28;20178;-59
2022/08/20 07:02:18;;;;;;;5.68;1.70;;;23.60;64.20;;;;;;5054013;28;20210;-60
2022/08/20 07:04:44;;;;;;;2.35;1.40;;;23.60;64.20;;;;;;5053631;28;20205;-60
2022/08/20 07:07:15;;;;;;;2.50;1.48;;;23.60;64.20;;;;;;5053893;28;20314;-60
2022/08/20 07:09:41;;;;;;;2.40;1.60;;;23.60;64.00;;;;;;5054178;28;20194;-59
2022/08/20 07:12:08;;;;;;;1.90;1.40;;;23.70;64.10;;;;;;5053753;28;20175;-59
2022/08/20 07:14:34;;;;;;;3.47;1.60;;;23.60;64.10;;;;;;5054141;28;20185;-60
2022/08/20 07:17:02;;;;;;;2.08;1.70;;;23.70;64.40;;;;;;5054002;28;20171;-60
2022/08/20 07:19:27;;;;;;;4.03;2.50;;;23.60;64.40;;;;;;5053463;28;20179;-60
2022/08/20 07:21:53;;;;;;;3.47;2.13;;;23.70;64.50;;;;;;5053883;28;20175;-60
2022/08/20 07:24:18;;;;;;;2.35;2.03;;;23.70;64.40;;;;;;5053997;28;20535;-60
2022/08/20 07:26:44;;;;;;;3.95;1.95;;;23.70;64.30;;;;;;5052551;28;20194;-60
2022/08/20 07:29:09;;;;;;;2.30;1.98;;;23.70;64.30;;;;;;5054100;28;20210;-60
2022/08/20 07:34:19;;;;;;;4.43;2.00;;;23.80;64.20;;;;;;5052946;28;20683;-60
2022/08/20 07:36:47;;;;;;;2.78;1.90;;;23.80;64.20;;;;;;5053493;28;20171;-59
2022/08/20 07:39:12;;;;;;;3.30;1.92;;;23.80;64.20;;;;;;5053805;28;20190;-60
2022/08/20 07:41:38;;;;;;;3.28;1.63;;;23.90;64.50;;;;;;5052924;28;20172;-61
2022/08/20 07:44:03;;;;;;;4.60;2.25;;;23.90;64.20;;;;;;5053425;28;20179;-60
2022/08/20 07:46:30;;;;;;;4.75;2.20;;;23.90;64.10;;;;;;5053458;28;20205;-61
2022/08/20 07:48:55;;;;;;;3.92;1.90;;;24.00;64.10;;;;;;5052541;28;20202;-60
2022/08/20 07:51:21;;;;;;;4.85;2.33;;;24.00;64.20;;;;;;5053352;28;20520;-60
2022/08/20 07:53:47;;;;;;;4.90;2.08;;;24.00;64.20;;;;;;5053291;28;20172;-60
2022/08/20 07:56:14;;;;;;;4.28;2.50;;;24.00;64.20;;;;;;5052919;28;20174;-59
2022/08/20 07:58:48;;;;;;;5.72;2.15;;;24.10;64.20;;;;;;5053316;28;20179;-61
2022/08/20 08:01:14;;;;;;;4.38;2.35;;;24.10;64.20;;;;;;5052745;28;20183;-60
2022/08/20 08:03:40;;;;;;;7.88;2.35;;;24.10;64.20;;;;;;5053181;28;20175;-61
2022/08/20 08:06:05;;;;;;;7.55;2.50;;;24.20;64.30;;;;;;5053040;28;20175;-61
2022/08/20 08:08:31;;;;;;;5.38;2.22;;;24.20;64.30;;;;;;5052177;28;20280;-61
2022/08/20 08:10:59;;;;;;;7.13;2.45;;;24.20;64.30;;;;;;5051730;28;20178;-61
2022/08/20 08:13:26;;;;;;;8.48;2.40;;;24.20;64.30;;;;;;5051993;28;20232;-60
2022/08/20 08:15:53;;;;;;;4.50;2.30;;;24.20;64.30;;;;;;5052193;28;20258;-61
2022/08/20 08:18:20;;;;;;;3.80;2.03;;;24.30;64.30;;;;;;5051780;28;20250;-60
2022/08/20 08:20:46;;;;;;;4.97;2.28;;;24.30;64.20;;;;;;5052781;28;20657;-60
2022/08/20 08:23:12;;;;;;;3.05;1.85;;;24.30;64.00;;;;;;5051209;28;20183;-60
2022/08/20 08:25:41;;;;;;;4.88;2.53;;;24.30;63.90;;;;;;5053064;28;20178;-60
2022/08/20 08:28:06;;;;;;;5.25;2.63;;;24.30;63.70;;;;;;5052729;28;20291;-60
2022/08/20 08:30:32;;;;;;;3.70;2.13;;;24.30;63.60;;;;;;5052107;28;20605;-61
2022/08/20 08:35:45;;;;;;;4.95;2.13;;;24.40;63.50;;;;;;5052966;28;20182;-60
2022/08/20 08:38:11;;;;;;;5.20;2.90;;;24.40;63.40;;;;;;5051186;28;20693;-60
2022/08/20 08:40:37;;;;;;;4.68;2.50;;;24.50;63.30;;;;;;5052721;28;20271;-60
2022/08/20 08:43:03;;;;;;;6.25;2.65;;;24.50;63.20;;;;;;5052522;28;20638;-61
2022/08/20 08:45:33;;;;;;;6.43;2.67;;;24.50;63.10;;;;;;5050708;28;20175;-60
2022/08/20 08:47:59;;;;;;;5.15;2.55;;;24.50;62.90;;;;;;5051483;28;20265;-61
2022/08/20 08:50:32;;;;;;;9.05;2.80;;;24.50;63.00;;;;;;5050880;28;20163;-59
2022/08/20 08:52:59;;;;;;;8.45;2.90;;;24.60;63.10;;;;;;5052539;28;20589;-59
2022/08/20 08:55:24;;;;;;;13.07;3.08;;;24.60;62.90;;;;;;5051413;28;20225;-60
2022/08/20 08:57:52;;;;;;;8.77;3.50;;;24.60;63.40;;;;;;5049377;28;20876;-60
2022/08/20 09:00:20;;;;;;;10.38;3.20;;;24.70;63.10;;;;;;5051484;28;20171;-60
2022/08/20 09:03:22;;;;;;;8.65;2.85;;;24.60;63.20;;;;;;5052493;28;20172;-59
2022/08/20 09:05:52;;;;;;;5.88;2.60;;;24.50;63.40;;;;;;5040375;28;20189;-60
2022/08/20 09:08:22;;;;;;;6.57;2.92;;;24.50;63.40;;;;;;5050876;28;20230;-60
2022/08/20 09:10:47;;;;;;;10.02;3.03;;;24.50;63.50;;;;;;5051311;28;20175;-60
2022/08/20 09:13:13;;;;;;;7.95;2.88;;;24.50;62.90;;;;;;5051819;28;20183;-60
2022/08/20 09:15:38;;;;;;;5.60;2.30;;;24.50;62.50;;;;;;5052441;28;20198;-60
2022/08/20 09:18:04;;;;;;;7.00;2.60;;;24.60;62.20;;;;;;5052175;28;20683;-59
2022/08/20 09:20:30;;;;;;;8.32;2.53;;;24.60;62.20;;;;;;5050336;28;20187;-60
2022/08/20 09:22:55;;;;;;;9.13;3.25;;;24.60;62.40;;;;;;5052060;28;20183;-60
2022/08/20 09:25:21;;;;;;;11.30;2.95;;;24.70;62.50;;;;;;5051931;28;20180;-60
2022/08/20 09:27:46;;;;;;;6.75;2.63;;;24.70;62.00;;;;;;5051833;28;20753;-60
2022/08/20 09:30:12;;;;;;;5.00;2.63;;;24.70;61.70;;;;;;5052275;28;20177;-59
2022/08/20 09:32:38;;;;;;;7.15;2.45;;;24.80;61.80;;;;;;5051323;28;20179;-60
2022/08/20 09:35:04;;;;;;;5.85;3.00;;;24.80;61.50;;;;;;5052001;28;20645;-59
2022/08/20 09:37:30;;;;;;;5.80;2.38;;;24.80;61.20;;;;;;5051957;28;20299;-60
2022/08/20 09:39:56;;;;;;;6.13;2.92;;;24.70;61.20;;;;;;5051360;28;20195;-60
2022/08/20 09:42:23;;;;;;;4.95;2.25;;;24.70;61.50;;;;;;5051999;28;20657;-60
2022/08/20 09:44:49;;;;;;;7.30;2.60;;;24.70;61.20;;;;;;5051900;28;20225;-60
2022/08/20 09:47:16;;;;;;;3.83;2.13;;;24.70;60.70;;;;;;5051609;28;20183;-60
2022/08/20 09:49:41;;;;;;;5.03;2.58;;;24.80;60.50;;;;;;5053272;28;20201;-63
2022/08/20 09:52:08;;;;;;;10.07;2.78;;;24.80;60.40;;;;;;5055552;28;20172;-60
2022/08/20 09:54:34;;;;;;;5.03;2.25;;;24.80;60.20;;;;;;5055207;28;20183;-59
2022/08/20 09:57:03;;;;;;;7.13;2.28;;;24.80;60.50;;;;;;5055636;28;20179;-59
2022/08/20 09:59:29;;;;;;;3.97;2.20;;;24.80;60.50;;;;;;5055762;28;20517;-60
2022/08/20 10:01:54;;;;;;;3.25;2.17;;;24.80;60.30;;;;;;5054740;28;20660;-60
2022/08/20 10:04:20;;;;;;;6.65;2.75;;;24.70;60.50;;;;;;5055489;28;20171;-60
2022/08/20 10:06:45;;;;;;;4.05;2.20;;;24.70;60.20;;;;;;5055109;28;20653;-60
2022/08/20 10:09:11;;;;;;;5.22;2.10;;;24.60;59.60;;;;;;5054860;28;20222;-60
2022/08/20 10:11:36;;;;;;;5.65;2.38;;;24.70;59.70;;;;;;5055625;28;20241;-60
2022/08/20 10:14:02;;;;;;;6.25;2.00;;;24.60;59.70;;;;;;5055176;28;20513;-60
2022/08/20 10:16:28;;;;;;;7.10;2.40;;;24.60;59.70;;;;;;5054583;28;20625;-60
2022/08/20 10:18:53;;;;;;;3.50;2.30;;;24.50;59.70;;;;;;5055096;28;20261;-60
2022/08/20 10:21:19;;;;;;;4.05;2.22;;;24.50;59.60;;;;;;5055264;28;20224;-60
2022/08/20 10:23:45;;;;;;;5.93;2.65;;;24.50;59.50;;;;;;5054081;28;20221;-60
2022/08/20 10:26:10;;;;;;;7.88;2.65;;;24.50;59.50;;;;;;5055350;28;20175;-60
2022/08/20 10:28:36;;;;;;;5.22;2.28;;;24.50;59.30;;;;;;5055042;28;20218;-60
2022/08/20 10:31:04;;;;;;;6.80;2.10;;;24.60;59.10;;;;;;5054294;28;20262;-59
2022/08/20 10:33:29;;;;;;;6.88;2.38;;;24.60;58.90;;;;;;5054977;28;20236;-60
2022/08/20 10:35:55;;;;;;;4.50;2.00;;;24.70;58.70;;;;;;5053950;28;20167;-60
2022/08/20 10:38:20;;;;;;;5.30;2.28;;;24.80;58.50;;;;;;5055171;28;20179;-60
2022/08/20 10:40:46;;;;;;;4.43;2.10;;;24.80;58.30;;;;;;5054626;28;20540;-60
2022/08/20 10:43:11;;;;;;;4.45;2.35;;;24.80;58.20;;;;;;5054283;28;20194;-60
2022/08/20 10:45:37;;;;;;;3.70;2.40;;;24.80;58.20;;;;;;5054788;28;20633;-60
2022/08/20 10:48:02;;;;;;;5.18;2.00;;;24.90;58.10;;;;;;5054545;28;20203;-60
2022/08/20 10:50:28;;;;;;;3.80;2.17;;;24.90;58.50;;;;;;5053911;28;20172;-60
2022/08/20 10:52:54;;;;;;;3.70;1.75;;;24.90;57.80;;;;;;5054544;28;20542;-59
2022/08/20 10:55:19;;;;;;;4.15;1.88;;;25.00;57.70;;;;;;5054751;28;20289;-60
2022/08/20 10:57:45;;;;;;;4.18;1.80;;;24.90;57.90;;;;;;5053868;28;20179;-60
2022/08/20 11:00:14;;;;;;;4.22;2.00;;;24.80;57.90;;;;;;5054416;28;20278;-60
2022/08/20 11:02:40;;;;;;;6.85;2.20;;;24.70;58.00;;;;;;5052958;28;20183;-60
2022/08/20 11:05:06;;;;;;;6.10;2.00;;;24.80;57.80;;;;;;5053479;28;20199;-60
2022/08/20 11:07:36;;;;;;;7.25;2.22;;;24.90;57.60;;;;;;5054110;28;20300;-60
2022/08/20 11:10:02;;;;;;;4.43;2.47;;;24.90;57.40;;;;;;5054119;28;20733;-59
2022/08/20 11:12:27;;;;;;;4.22;1.98;;;24.90;57.30;;;;;;5053625;28;20288;-60
2022/08/20 11:14:53;;;;;;;3.47;1.67;;;24.90;57.10;;;;;;5054047;28;20178;-60
2022/08/20 11:17:21;;;;;;;3.72;1.98;;;25.00;56.90;;;;;;5054159;28;20174;-60
2022/08/20 11:19:46;;;;;;;5.15;2.00;;;25.00;56.70;;;;;;5053498;28;20252;-60
2022/08/20 11:22:12;;;;;;;3.83;1.83;;;25.00;56.50;;;;;;5054255;28;20630;-60
2022/08/20 11:24:37;;;;;;;4.85;2.35;;;25.00;56.40;;;;;;5054247;28;20179;-60
2022/08/20 11:27:04;;;;;;;2.97;1.70;;;25.10;56.20;;;;;;5053320;28;20267;-60
2022/08/20 11:29:30;;;;;;;3.13;1.70;;;25.00;55.90;;;;;;5052742;28;20293;-60
2022/08/20 11:31:55;;;;;;;4.57;1.85;;;25.00;55.80;;;;;;5053494;28;20701;-60
2022/08/20 11:34:21;;;;;;;4.00;1.38;;;25.10;55.70;;;;;;5053686;28;20258;-60
2022/08/20 11:36:47;;;;;;;2.63;1.52;;;25.10;55.60;;;;;;5053901;28;20244;-60
2022/08/20 11:39:12;;;;;;;5.43;2.10;;;25.10;55.50;;;;;;5051781;28;20696;-60
2022/08/20 11:41:38;;;;;;;4.35;1.98;;;25.20;55.40;;;;;;5053747;28;20168;-60
2022/08/20 11:44:03;;;;;;;3.75;1.92;;;25.10;55.10;;;;;;5053540;28;20185;-60
2022/08/20 11:46:29;;;;;;;3.15;1.58;;;25.10;55.00;;;;;;5052784;28;20174;-60
2022/08/20 11:48:54;;;;;;;3.47;1.77;;;25.00;54.90;;;;;;5053573;28;20234;-60
2022/08/20 11:51:20;;;;;;;3.80;1.70;;;25.00;54.60;;;;;;5053702;28;20236;-60
2022/08/20 11:53:45;;;;;;;5.10;2.20;;;25.10;54.40;;;;;;5052698;28;20179;-59
2022/08/20 11:56:11;;;;;;;3.92;2.08;;;25.00;54.10;;;;;;5053355;28;20517;-60
2022/08/20 11:58:36;;;;;;;4.38;2.10;;;25.10;54.00;;;;;;5052146;28;20668;-60
2022/08/20 12:01:02;;;;;;;4.75;1.88;;;25.00;53.90;;;;;;5052405;28;20262;-60
2022/08/20 12:03:29;;;;;;;4.32;2.08;;;24.90;54.00;;;;;;5053156;28;20170;-60
2022/08/20 12:05:56;;;;;;;4.32;1.77;;;25.00;53.90;;;;;;5053219;28;20186;-59
2022/08/20 12:08:22;;;;;;;5.15;1.92;;;25.10;53.80;;;;;;5052264;28;20274;-59
2022/08/20 12:10:47;;;;;;;3.40;1.60;;;25.10;53.70;;;;;;5053225;28;20210;-60
2022/08/20 12:13:13;;;;;;;5.40;1.92;;;25.00;53.50;;;;;;5052971;28;20621;-60
2022/08/20 12:15:38;;;;;;;3.63;1.80;;;25.10;53.40;;;;;;5052296;28;20182;-60
2022/08/20 12:18:07;;;;;;;4.55;1.73;;;25.10;53.30;;;;;;5053032;28;20186;-60
2022/08/20 12:20:32;;;;;;;3.80;1.38;;;25.20;53.30;;;;;;5053188;28;20175;-60
2022/08/20 12:22:58;;;;;;;5.57;1.75;;;25.10;52.90;;;;;;5052327;28;20175;-60
2022/08/20 12:25:24;;;;;;;3.90;1.52;;;25.00;53.00;;;;;;5053058;28;20184;-60
2022/08/20 12:27:49;;;;;;;4.45;1.80;;;25.10;52.90;;;;;;5052788;28;20213;-59
2022/08/20 12:30:17;;;;;;;5.15;1.92;;;25.10;52.80;;;;;;5052130;28;20175;-59
2022/08/20 12:32:43;;;;;;;4.47;1.70;;;25.00;52.70;;;;;;5053115;28;20210;-60
2022/08/20 12:35:09;;;;;;;3.33;1.48;;;25.00;52.90;;;;;;5053145;28;20175;-60
2022/08/20 12:37:34;;;;;;;4.80;1.60;;;24.90;52.80;;;;;;5052158;28;20171;-60
2022/08/20 12:40:01;;;;;;;4.95;2.10;;;25.00;52.80;;;;;;5052738;28;20630;-60
2022/08/20 12:42:28;;;;;;;4.50;1.88;;;25.00;52.60;;;;;;5052080;28;20179;-60
2022/08/20 12:44:53;;;;;;;3.10;1.52;;;25.10;52.60;;;;;;5052462;28;20262;-61
2022/08/20 12:47:21;;;;;;;4.32;1.80;;;25.20;52.50;;;;;;5052810;28;20261;-60
2022/08/20 12:49:49;;;;;;;4.07;1.83;;;25.20;52.40;;;;;;5051577;28;20566;-60
2022/08/20 12:52:16;;;;;;;4.07;1.50;;;25.30;52.40;;;;;;5052777;28;20220;-59
2022/08/20 12:54:41;;;;;;;6.93;1.60;;;25.30;52.30;;;;;;5052764;28;20179;-59